New Creek, West Virginia
Current Conditions -  °F | °C
As of 8:45 AM on Monday 24 Nov 2014 (Local Time) from K2G4 Reporting Station
Scattered Clouds Scattered Clouds  
Wind Chill: 57°   Ceiling: Unl
Heat Index: 57°   Visibility: 10mi
Dew Point: 45°   Wind: 13mph
Humidity: 63%   Direction: 200°SSW
Pressure: 29.58"   Gusts: 22mph
Location:  39.37°N, 79.03°W
Report Text: K2G4 241345Z AUTO 20011G19KT 10SM SCT034 SCT043 14/07 A2958 RMK AO1
Loading
Personal Weather Stations






























Interactive Weather Map New forecast layout! Learn more

10-Day Weather Forecast

Advertisements
Track Severe Weather on mobile